• Join FlightAware (Why Join?)
  • Login
  • US Flag 
10:06PM EDT


 

Airport Tracker/Info


-or-


 

Live Flight TrackerFlight Track Log ✈ TMC491 ✈ 14-Apr-2013 ✈ KMSN - KTEB

Flight Track Log - Related Links

Times and Time Zones

All times are in EDT time to prevent confusion due to time zone crossing. See the TMC491 flight status page for this flight to view local times or setup timezone preferences in your user account.

Time Position Orientation Groundspeed Altitude Reporting Facility
EDT Latitude Longitude Course Direction KTS MPH feet Rate Location/Type
03:18AM 43.1575 -89.3533 101° East 158 182 2,100  Level Chicago Center
03:19AM 43.1819 -89.3056 55° Northeast 224 258 4,900 2,820 Climbing Chicago Center
03:20AM 43.1681 -89.2158 102° East 246 283 7,900 2,700 Climbing Chicago Center
03:21AM 43.1167 -88.4285 90° East  Level FlightAware Approximate
03:21AM 43.1633 -89.1136 94° East 267 307 10,400  Level Chicago Center
03:22AM 43.1155 -88.2774 105° East  Level FlightAware Approximate
03:22AM 43.1569 -88.9981 94° East 299 344 12,300  Level Chicago Center
03:23AM 43.0900 -88.1303 101° East  Level FlightAware Approximate
03:23AM 43.1494 -88.8694 95° East 332 382 14,200  Level Chicago Center
03:24AM 43.1414 -88.7328 95° East 357 411 16,200 1,800 Climbing Chicago Center
03:25AM 43.1339 -88.5886 94° East 379 436 17,800 1,740 Climbing Chicago Center
03:26AM 43.1247 -88.4392 95° East 390 449 19,700 1,920 Climbing Chicago Center
03:27AM 43.1161 -88.2875 94° East 400 460 21,700 1,920 Climbing Chicago Center
03:28AM 43.1006 -88.1353 98° East 405 466 23,600 1,680 Climbing Chicago Center
03:29AM 43.0836 -87.9817 99° East 408 470 25,100 1,380 Climbing Chicago Center
03:30AM 43.0656 -87.8233 99° East 417 480 26,400 1,200 Climbing Chicago Center
03:31AM 43.0481 -87.6608 98° East 428 493 27,600 1,200 Climbing Chicago Center
03:32AM 43.0294 -87.4931 99° East 440 506 28,800 1,140 Climbing Chicago Center
03:33AM 43.0108 -87.3319 99° East 450 518 29,900 1,080 Climbing Chicago Center
03:34AM 42.9914 -87.1619 99° East 453 521 31,000 1,200 Climbing Chicago Center
03:35AM 42.9678 -86.9575 99° East 456 525 32,300 1,140 Climbing Chicago Center
03:36AM 42.9481 -86.7881 99° East 455 524 33,300 900 Climbing Chicago Center
03:37AM 42.9286 -86.6192 99° East 455 524 34,200 900 Climbing Chicago Center
03:38AM 42.9072 -86.4511 100° East 453 521 35,200 840 Climbing Chicago Center
03:39AM 42.8956 -86.2842 95° East 447 514 36,000 720 Climbing Chicago Center
03:40AM 42.8847 -86.1189 95° East 445 512 36,700 600 Climbing Chicago Center
03:41AM 42.8725 -85.9561 96° East 444 511 37,300 540 Climbing Chicago Center
03:42AM 42.8617 -85.7922 95° East 443 510 37,800 480 Climbing Chicago Center
03:43AM 42.8492 -85.6275 96° East 442 509 38,300 480 Climbing Chicago Center
03:44AM 42.8378 -85.4633 95° East 441 507 38,800 300 Climbing Chicago Center
03:45AM 42.8258 -85.2992 96° East 437 503 39,000 60 Climbing Chicago Center
03:46AM 42.8133 -85.1336 96° East 440 506 39,000  Level Chicago Center
03:47AM 42.8003 -84.9639 96° East 448 516 39,000  Level Chicago Center
03:48AM 42.7864 -84.7933 96° East 454 522 39,000  Level Chicago Center
03:49AM 42.7711 -84.6169 97° East 448 516 39,000  Level Cleveland Center
03:50AM 42.7583 -84.4406 96° East 453 521 39,000  Level Cleveland Center
03:51AM 42.7394 -84.2500 98° East 458 527 39,000  Level Cleveland Center
03:52AM 42.7261 -84.0767 96° East 463 533 39,000  Level Cleveland Center
03:53AM 42.7106 -83.8978 97° East 468 539 39,000  Level Cleveland Center
03:54AM 42.6944 -83.7247 97° East 468 539 39,000  Level Cleveland Center
03:55AM 42.6783 -83.5458 97° East 468 539 39,000  Level Cleveland Center
03:56AM 42.6636 -83.3842 97° East 468 539 39,000  Level Cleveland Center
03:57AM 42.6469 -83.2056 97° East 468 539 39,100 300 Climbing Cleveland Center
03:58AM 42.6300 -83.0300 97° East 468 539 39,600 420 Climbing Cleveland Center
03:59AM 42.6106 -82.8600 99° East 468 539 40,000 420 Climbing Cleveland Center
04:00AM 42.5889 -82.6928 100° East 463 533 40,500 480 Climbing Cleveland Center
04:01AM 42.5686 -82.5314 100° East 443 510 41,000 240 Climbing Cleveland Center
04:02AM 42.5464 -82.3728 101° East 432 497 41,000  Level Cleveland Center
04:03AM 42.5258 -82.2089 100° East 432 497 41,000  Level Cleveland Center
04:04AM 42.5050 -82.0478 100° East 432 497 41,000  Level Cleveland Center
04:05AM 42.4842 -81.8867 100° East 432 497 41,000  Level Cleveland Center
04:06AM 42.4628 -81.7286 100° East 427 491 41,000  Level Cleveland Center
04:07AM 42.4414 -81.5681 100° East 432 497 41,000  Level Cleveland Center
04:08AM 42.4197 -81.4044 100° East 432 497 41,000  Level Cleveland Center
04:09AM 42.3939 -81.2297 101° East 432 497 41,000  Level Cleveland Center
04:10AM 42.3694 -81.0722 102° East 427 491 41,000  Level Cleveland Center
04:11AM 42.3472 -80.9033 100° East 432 497 41,000  Level Cleveland Center
04:12AM 42.3247 -80.7461 101° East 432 497 41,000  Level Cleveland Center
04:13AM 42.3019 -80.5889 101° East 432 497 41,000  Level Cleveland Center
04:14AM 42.2789 -80.4289 101° East 427 491 41,000  Level Cleveland Center
04:15AM 42.2533 -80.2661 102° East 438 504 41,000  Level Cleveland Center
04:16AM 42.2300 -80.1036 101° East 438 504 41,000  Level Cleveland Center
04:17AM 42.2064 -79.9469 101° East 438 504 41,000  Level Cleveland Center
04:18AM 42.1822 -79.7847 101° East 433 498 41,000  Level Cleveland Center
04:19AM 42.1561 -79.6281 103° East 428 493 41,000  Level Cleveland Center
04:20AM 42.1317 -79.4633 101° East 433 498 41,000  Level Cleveland Center
04:21AM 42.1050 -79.3042 103° East 433 498 41,000  Level Cleveland Center
04:22AM 42.0781 -79.1369 102° East 438 504 41,000  Level Cleveland Center
04:23AM 42.0531 -78.9753 102° East 443 510 41,000  Level Cleveland Center
04:24AM 42.0278 -78.8136 102° East 443 510 41,000  Level Cleveland Center
04:25AM 41.9978 -78.6469 104° East 448 516 41,000  Level Cleveland Center
04:26AM 41.9722 -78.4831 102° East 448 516 41,000  Level Cleveland Center
04:27AM 41.9461 -78.3192 102° East 448 516 41,000 -660 Level Cleveland Center
04:29AM 41.8814 -77.9503 103° East 461 531 39,000 -1,200 Descending New York Center
04:30AM 41.8458 -77.7764 105° East 475 547 37,300 -1,740 Descending New York Center
04:31AM 41.7997 -77.6044 110° East 488 562 35,600 -1,200 Descending New York Center
04:32AM 41.7514 -77.4272 110° East 500 575 35,000 -300 Descending New York Center
04:33AM 41.7047 -77.2531 110° East 500 575 35,000  Level New York Center
04:34AM 41.6581 -77.0792 110° East 505 581 35,000  Level New York Center
04:35AM 41.6092 -76.8997 110° East 505 581 35,000 -480 Level New York Center
04:36AM 41.5597 -76.7231 110° East 505 581 34,100 -2,040 Descending New York Center
04:37AM 41.5119 -76.5500 110° East 505 581 31,100 -2,580 Descending New York Center
04:38AM 41.4747 -76.4139 110° East 500 575 29,000 -2,340 Descending New York Center
04:39AM 41.4247 -76.2353 110° East 485 558 26,400 -2,580 Descending New York Center
04:40AM 41.3781 -76.0711 111° Southeast 475 547 23,900 -2,580 Descending New York Center
04:41AM 41.3350 -75.9186 111° Southeast 462 532 21,400 -2,400 Descending New York Center
04:42AM 41.2914 -75.7689 111° Southeast 444 511 19,100 -2,340 Descending New York Center
04:43AM 41.2458 -75.6108 111° Southeast 424 488 16,800 -2,280 Descending New York Center
04:44AM 41.2069 -75.4894 113° Southeast 396 456 14,600 -2,280 Descending New York Center
04:45AM 41.1622 -75.3569 114° Southeast 381 438 12,300 -2,100 Descending New York Center
04:46AM 41.1247 -75.2442 114° Southeast 338 389 10,500 -1,740 Descending New York Center
04:47AM 41.1017 -75.1353 106° East 310 357 8,900 -1,680 Descending New York Center
04:48AM 41.0969 -75.0358 94° East 298 343 7,200 -1,440 Descending New York Center
04:49AM 41.0903 -74.9336 95° East 285 328 6,000 -600 Descending New York Center
04:50AM 41.0819 -74.8119 95° East 290 334 6,000  Level New York Center
04:51AM 41.0750 -74.7153 95° East 296 341 6,000  Level New York Center
04:52AM 41.0667 -74.5881 95° East 296 341 6,000 -120 Level New York Center
04:53AM 41.0594 -74.4886 95° East 303 349 5,800 -660 Descending New York Center
04:54AM 41.0525 -74.3728 95° East 296 341 4,700 -1,080 Descending New York Center
04:55AM 41.0428 -74.2814 98° East 285 328 3,700 -1,080 Descending New York Center
04:56AM 41.0350 -74.1875 96° East 265 305 2,600 -900 Descending New York Center
04:57AM 41.0314 -74.0994 93° East 224 258 2,000 -300 Descending New York Center
04:58AM 40.9994 -74.0483 130° Southeast 186 214 2,000 -60 Level New York Center
04:59AM 40.9500 -74.0500 181° South 144 166 1,900 -420 Descending New York TRACON
05:00AM 40.9167 -74.0500 180° South 122 140 1,100 -660 Descending New York TRACON
05:01AM 40.8667 -74.0500 180° South 115 132 500 -600 Descending New York TRACON
05:03AM 40.8500 -74.0500 157° South  Level FlightAware Approximate
05:10AM 40.8501 -74.0608 157° South  Level Estimated